Flight ASXV44

  • Submitted By: Krzysztof H. Blaszkow
  • Departure Airport: Sligo Airport (EISG)
  • Arrival Airport: Ireland West Airport Knock (EIKN)
  • Aircraft: C 172 (SP-OJL)
  • Flight Time: 00.24.30
  • Date Submitted: 03/27/2017
  • Route: VFR
  • Status: Accepted
Flight Details
Gross Revenue:
(3 load / € 400.00 per unit
€ 1,200.00
Fuel Cost:
(7.25748 fuel used @ 0.45 / unit)
€ 3.27

Additional Log Information:

View Log

[18:25] - Cessna Skyhawk 172SP Paint1
[18:25] - Flight ASXV44 is ready to depart EISG with a final destination of EIKN.
[18:25] - Parking Brake Applied
[18:25] - Beacon Light ON
[18:25] - Boarding
[18:26] - ADF1 - 384.0
[18:26] - ADF2 - 240.0
[18:26] - NAV1 - 117.40
[18:26] - NAV2 - 110.60
[18:26] - COM1 - 122.80
[18:26] - COM2 - 127.80
[18:26] - Transponder - 7000
[18:28] - Taxi Lights ON 3AGL
[18:28] - Navigation Lights ON 3AGL
[18:29] - Engine 1 Started
[18:29] - Parking Brake Released
[18:30] - Taxiing to Runway
[18:30] - Strobe Lights ON 3AGL
[18:30] - Landing Lights ON 3AGL
[18:30] - Taxi Lights OFF 3AGL
[18:31] - Taking Off with 3 passengers on board
[18:31] - Take off at 73kts, with a pitch of 5deg and 104lbs of fuel on board
[18:31] - Wind Heading 102 | Wind Speed 5kts | Temperature 14 deg C
[18:31] - METAR Departure: EISG 271700Z 13005KT 100V160 CAVOK 16/07 Q1018

[18:32] - Climbing to TOC
[18:36] - TOC reached
[18:36] - Cruise started
[18:46] - Flaps to position 1 at 1519ft and 98kts
[18:46] - Flaps to position 2 at 1033ft and 105kts
[18:47] - Landed at -92fpm. With 89lbs of fuel onboard and a pitch angle of 1deg.
[18:47] - Wind Heading 93 | Wind Speed 7kts | Temperature 14 deg C
[18:47] - METAR Arrival: EIKN 271730Z 11006KT 080V150 9999 FEW025 BKN220 13/06 Q1017 NOSIG

[18:47] - Flaps to position 1
[18:48] - Taxiing to Gate
[18:48] - Flaps to position 0
[18:48] - Taxi Lights ON 3AGL
[18:48] - Landing Lights OFF 3AGL
[18:48] - Strobe Lights OFF 3AGL
[18:49] - Parking Brake Applied
[18:49] - Arrived safely at EIKN. We hope you enjoyed your flight!
[18:50] - Taxi Lights OFF 3AGL
[18:50] - Navigation Lights OFF 3AGL
[18:50] - Engine 1 Stopped
[18:50] - Cessna Skyhawk 172SP Paint1
[18:50] - MaxSim Rate: 1x
[18:50] - SiouxAcars ver: 1.0.1.2

Route Map